sensor_id;sensor_type;location;lat;lon;timestamp;temperature;humidity
4306;DHT22;2166;49.926;8.608;2023-04-15T00:00:55;4.70;78.40
4306;DHT22;2166;49.926;8.608;2023-04-15T00:03:27;4.60;78.50
4306;DHT22;2166;49.926;8.608;2023-04-15T00:05:56;4.50;78.50
4306;DHT22;2166;49.926;8.608;2023-04-15T00:08:25;4.50;78.70
4306;DHT22;2166;49.926;8.608;2023-04-15T00:10:54;4.40;78.80
4306;DHT22;2166;49.926;8.608;2023-04-15T00:13:22;4.30;78.90
4306;DHT22;2166;49.926;8.608;2023-04-15T00:15:51;4.30;78.90
4306;DHT22;2166;49.926;8.608;2023-04-15T00:18:19;4.20;79.00
4306;DHT22;2166;49.926;8.608;2023-04-15T00:20:49;4.20;79.00
4306;DHT22;2166;49.926;8.608;2023-04-15T00:23:18;4.20;79.20
4306;DHT22;2166;49.926;8.608;2023-04-15T00:25:46;4.20;79.20
4306;DHT22;2166;49.926;8.608;2023-04-15T00:28:15;4.20;79.20
4306;DHT22;2166;49.926;8.608;2023-04-15T00:30:44;4.20;79.30
4306;DHT22;2166;49.926;8.608;2023-04-15T00:33:13;4.20;79.20
4306;DHT22;2166;49.926;8.608;2023-04-15T00:35:42;4.20;79.30
4306;DHT22;2166;49.926;8.608;2023-04-15T00:38:12;4.20;79.40
4306;DHT22;2166;49.926;8.608;2023-04-15T00:40:40;4.20;79.40
4306;DHT22;2166;49.926;8.608;2023-04-15T00:43:09;4.20;79.40
4306;DHT22;2166;49.926;8.608;2023-04-15T00:45:37;4.20;79.40
4306;DHT22;2166;49.926;8.608;2023-04-15T00:48:09;4.20;79.40
4306;DHT22;2166;49.926;8.608;2023-04-15T00:50:38;4.10;79.30
4306;DHT22;2166;49.926;8.608;2023-04-15T00:53:06;4.20;79.40
4306;DHT22;2166;49.926;8.608;2023-04-15T00:55:38;4.20;79.70
4306;DHT22;2166;49.926;8.608;2023-04-15T00:58:07;4.20;79.60
4306;DHT22;2166;49.926;8.608;2023-04-15T01:00:35;4.20;79.70
4306;DHT22;2166;49.926;8.608;2023-04-15T01:03:06;4.20;79.60
4306;DHT22;2166;49.926;8.608;2023-04-15T01:05:36;4.10;79.60
4306;DHT22;2166;49.926;8.608;2023-04-15T01:08:05;4.10;79.60
4306;DHT22;2166;49.926;8.608;2023-04-15T01:10:38;4.10;79.70
4306;DHT22;2166;49.926;8.608;2023-04-15T01:13:09;4.10;79.80
4306;DHT22;2166;49.926;8.608;2023-04-15T01:15:38;4.10;80.00
4306;DHT22;2166;49.926;8.608;2023-04-15T01:18:08;4.10;80.10
4306;DHT22;2166;49.926;8.608;2023-04-15T01:20:39;4.10;80.10
4306;DHT22;2166;49.926;8.608;2023-04-15T01:23:07;4.10;79.90
4306;DHT22;2166;49.926;8.608;2023-04-15T01:25:38;4.00;79.80
4306;DHT22;2166;49.926;8.608;2023-04-15T01:28:07;3.90;79.70
4306;DHT22;2166;49.926;8.608;2023-04-15T01:30:36;3.90;79.60
4306;DHT22;2166;49.926;8.608;2023-04-15T01:33:06;3.80;79.60
4306;DHT22;2166;49.926;8.608;2023-04-15T01:35:37;3.70;79.70
4306;DHT22;2166;49.926;8.608;2023-04-15T01:38:06;3.70;79.80
4306;DHT22;2166;49.926;8.608;2023-04-15T01:40:38;3.60;79.90
4306;DHT22;2166;49.926;8.608;2023-04-15T01:43:07;3.70;79.80
4306;DHT22;2166;49.926;8.608;2023-04-15T01:45:35;3.60;79.90
4306;DHT22;2166;49.926;8.608;2023-04-15T01:48:06;3.60;79.90
4306;DHT22;2166;49.926;8.608;2023-04-15T01:50:37;3.60;79.90
4306;DHT22;2166;49.926;8.608;2023-04-15T01:53:05;3.60;80.00
4306;DHT22;2166;49.926;8.608;2023-04-15T01:55:34;3.60;80.10
4306;DHT22;2166;49.926;8.608;2023-04-15T01:58:04;3.50;80.20
4306;DHT22;2166;49.926;8.608;2023-04-15T02:00:33;3.50;80.10
4306;DHT22;2166;49.926;8.608;2023-04-15T02:03:02;3.50;80.20
4306;DHT22;2166;49.926;8.608;2023-04-15T02:05:32;3.50;80.40
4306;DHT22;2166;49.926;8.608;2023-04-15T02:08:02;3.40;80.20
4306;DHT22;2166;49.926;8.608;2023-04-15T02:10:31;3.50;80.20
4306;DHT22;2166;49.926;8.608;2023-04-15T02:13:00;3.60;80.20
4306;DHT22;2166;49.926;8.608;2023-04-15T02:15:30;3.60;80.40
4306;DHT22;2166;49.926;8.608;2023-04-15T02:17:59;3.70;80.40
4306;DHT22;2166;49.926;8.608;2023-04-15T02:20:29;3.70;80.40
4306;DHT22;2166;49.926;8.608;2023-04-15T02:22:58;3.60;80.30
4306;DHT22;2166;49.926;8.608;2023-04-15T02:25:28;3.60;80.20
4306;DHT22;2166;49.926;8.608;2023-04-15T02:27:57;3.60;80.20
4306;DHT22;2166;49.926;8.608;2023-04-15T02:30:31;3.60;80.20
4306;DHT22;2166;49.926;8.608;2023-04-15T02:33:01;3.60;80.10
4306;DHT22;2166;49.926;8.608;2023-04-15T02:35:30;3.60;80.10
4306;DHT22;2166;49.926;8.608;2023-04-15T02:37:59;3.50;80.30
4306;DHT22;2166;49.926;8.608;2023-04-15T02:40:28;3.50;80.40
4306;DHT22;2166;49.926;8.608;2023-04-15T02:42:57;3.40;80.40
4306;DHT22;2166;49.926;8.608;2023-04-15T02:45:27;3.40;80.40
4306;DHT22;2166;49.926;8.608;2023-04-15T02:48:11;3.40;80.30
4306;DHT22;2166;49.926;8.608;2023-04-15T02:50:39;3.40;80.40
4306;DHT22;2166;49.926;8.608;2023-04-15T02:53:13;3.40;80.30
4306;DHT22;2166;49.926;8.608;2023-04-15T02:55:41;3.30;80.40
4306;DHT22;2166;49.926;8.608;2023-04-15T02:58:13;3.30;80.40
4306;DHT22;2166;49.926;8.608;2023-04-15T03:00:41;3.30;80.40
4306;DHT22;2166;49.926;8.608;2023-04-15T03:03:11;3.40;80.40
4306;DHT22;2166;49.926;8.608;2023-04-15T03:05:41;3.40;80.50
4306;DHT22;2166;49.926;8.608;2023-04-15T03:08:13;3.30;80.60
4306;DHT22;2166;49.926;8.608;2023-04-15T03:10:43;3.30;80.50
4306;DHT22;2166;49.926;8.608;2023-04-15T03:13:12;3.30;80.60
4306;DHT22;2166;49.926;8.608;2023-04-15T03:15:44;3.30;80.50
4306;DHT22;2166;49.926;8.608;2023-04-15T03:18:14;3.30;80.60
4306;DHT22;2166;49.926;8.608;2023-04-15T03:20:43;3.40;80.50
4306;DHT22;2166;49.926;8.608;2023-04-15T03:23:12;3.30;80.60
4306;DHT22;2166;49.926;8.608;2023-04-15T03:25:40;3.30;80.50
4306;DHT22;2166;49.926;8.608;2023-04-15T03:28:10;3.40;80.60
4306;DHT22;2166;49.926;8.608;2023-04-15T03:30:39;3.40;80.60
4306;DHT22;2166;49.926;8.608;2023-04-15T03:33:08;3.50;80.60
4306;DHT22;2166;49.926;8.608;2023-04-15T03:35:39;3.50;80.60
4306;DHT22;2166;49.926;8.608;2023-04-15T03:38:08;3.50;80.60
4306;DHT22;2166;49.926;8.608;2023-04-15T03:40:36;3.40;80.50
4306;DHT22;2166;49.926;8.608;2023-04-15T03:43:04;3.30;80.60
4306;DHT22;2166;49.926;8.608;2023-04-15T03:45:34;3.30;80.60
4306;DHT22;2166;49.926;8.608;2023-04-15T03:48:03;3.30;80.60
4306;DHT22;2166;49.926;8.608;2023-04-15T03:50:47;3.20;80.60
4306;DHT22;2166;49.926;8.608;2023-04-15T03:53:16;3.20;80.50
4306;DHT22;2166;49.926;8.608;2023-04-15T03:55:44;3.10;80.60
4306;DHT22;2166;49.926;8.608;2023-04-15T03:58:13;3.10;80.60
4306;DHT22;2166;49.926;8.608;2023-04-15T04:00:41;3.00;80.50
4306;DHT22;2166;49.926;8.608;2023-04-15T04:03:10;3.00;80.60
4306;DHT22;2166;49.926;8.608;2023-04-15T04:05:39;3.10;80.70
4306;DHT22;2166;49.926;8.608;2023-04-15T04:08:11;3.10;80.80
4306;DHT22;2166;49.926;8.608;2023-04-15T04:10:46;3.20;80.80
4306;DHT22;2166;49.926;8.608;2023-04-15T04:13:19;3.20;80.80
4306;DHT22;2166;49.926;8.608;2023-04-15T04:15:51;3.20;80.70
4306;DHT22;2166;49.926;8.608;2023-04-15T04:18:37;3.30;80.90
4306;DHT22;2166;49.926;8.608;2023-04-15T04:21:23;3.40;80.70
4306;DHT22;2166;49.926;8.608;2023-04-15T04:23:53;3.40;80.60
4306;DHT22;2166;49.926;8.608;2023-04-15T04:26:22;3.40;80.60
4306;DHT22;2166;49.926;8.608;2023-04-15T04:28:53;3.30;80.70
4306;DHT22;2166;49.926;8.608;2023-04-15T04:31:21;3.30;80.70
4306;DHT22;2166;49.926;8.608;2023-04-15T04:33:50;3.30;80.80
4306;DHT22;2166;49.926;8.608;2023-04-15T04:36:19;3.30;80.90
4306;DHT22;2166;49.926;8.608;2023-04-15T04:38:48;3.30;81.00
4306;DHT22;2166;49.926;8.608;2023-04-15T04:41:20;3.30;81.00
4306;DHT22;2166;49.926;8.608;2023-04-15T04:43:48;3.30;81.00
4306;DHT22;2166;49.926;8.608;2023-04-15T04:46:16;3.20;80.90
4306;DHT22;2166;49.926;8.608;2023-04-15T04:48:45;3.30;80.90
4306;DHT22;2166;49.926;8.608;2023-04-15T04:51:13;3.40;80.80
4306;DHT22;2166;49.926;8.608;2023-04-15T04:53:42;3.50;80.90
4306;DHT22;2166;49.926;8.608;2023-04-15T04:56:10;3.50;80.90
4306;DHT22;2166;49.926;8.608;2023-04-15T04:58:40;3.50;80.80
4306;DHT22;2166;49.926;8.608;2023-04-15T05:01:09;3.50;80.80
4306;DHT22;2166;49.926;8.608;2023-04-15T05:03:37;3.50;80.70
4306;DHT22;2166;49.926;8.608;2023-04-15T05:06:06;3.50;80.70
4306;DHT22;2166;49.926;8.608;2023-04-15T05:08:35;3.50;80.70
4306;DHT22;2166;49.926;8.608;2023-04-15T05:11:07;3.50;80.60
4306;DHT22;2166;49.926;8.608;2023-04-15T05:13:35;3.60;80.70
4306;DHT22;2166;49.926;8.608;2023-04-15T05:16:06;3.60;80.70
4306;DHT22;2166;49.926;8.608;2023-04-15T05:18:37;3.60;80.70
4306;DHT22;2166;49.926;8.608;2023-04-15T05:21:07;3.70;80.70
4306;DHT22;2166;49.926;8.608;2023-04-15T05:23:40;3.70;80.60
4306;DHT22;2166;49.926;8.608;2023-04-15T05:26:09;3.70;80.70
4306;DHT22;2166;49.926;8.608;2023-04-15T05:28:37;3.80;80.60
4306;DHT22;2166;49.926;8.608;2023-04-15T05:31:08;3.80;80.70
4306;DHT22;2166;49.926;8.608;2023-04-15T05:33:36;3.80;80.70
4306;DHT22;2166;49.926;8.608;2023-04-15T05:36:06;3.90;80.70
4306;DHT22;2166;49.926;8.608;2023-04-15T05:38:35;3.90;80.80
4306;DHT22;2166;49.926;8.608;2023-04-15T05:41:03;4.00;80.60
4306;DHT22;2166;49.926;8.608;2023-04-15T05:43:32;4.10;80.70
4306;DHT22;2166;49.926;8.608;2023-04-15T05:46:02;4.30;80.70
4306;DHT22;2166;49.926;8.608;2023-04-15T05:48:32;4.50;80.50
4306;DHT22;2166;49.926;8.608;2023-04-15T05:51:01;4.70;80.40
4306;DHT22;2166;49.926;8.608;2023-04-15T05:53:30;4.80;80.20
4306;DHT22;2166;49.926;8.608;2023-04-15T05:55:59;4.80;80.20
4306;DHT22;2166;49.926;8.608;2023-04-15T05:58:27;5.00;80.20
4306;DHT22;2166;49.926;8.608;2023-04-15T06:00:56;5.10;80.10
4306;DHT22;2166;49.926;8.608;2023-04-15T06:03:24;5.40;80.20
4306;DHT22;2166;49.926;8.608;2023-04-15T06:05:55;5.60;80.10
4306;DHT22;2166;49.926;8.608;2023-04-15T06:08:23;5.70;79.90
4306;DHT22;2166;49.926;8.608;2023-04-15T06:10:52;5.90;79.70
4306;DHT22;2166;49.926;8.608;2023-04-15T06:13:21;6.20;79.80
4306;DHT22;2166;49.926;8.608;2023-04-15T06:15:50;6.40;79.60
4306;DHT22;2166;49.926;8.608;2023-04-15T06:18:19;6.70;79.60
4306;DHT22;2166;49.926;8.608;2023-04-15T06:20:48;7.00;78.90
4306;DHT22;2166;49.926;8.608;2023-04-15T06:23:18;7.40;78.90
4306;DHT22;2166;49.926;8.608;2023-04-15T06:25:47;7.90;78.40
4306;DHT22;2166;49.926;8.608;2023-04-15T06:28:17;8.30;78.20
4306;DHT22;2166;49.926;8.608;2023-04-15T06:30:45;8.70;77.40
4306;DHT22;2166;49.926;8.608;2023-04-15T06:33:15;9.00;77.20
4306;DHT22;2166;49.926;8.608;2023-04-15T06:35:44;9.30;76.80
4306;DHT22;2166;49.926;8.608;2023-04-15T06:38:13;9.70;76.10
4306;DHT22;2166;49.926;8.608;2023-04-15T06:40:43;10.20;76.60
4306;DHT22;2166;49.926;8.608;2023-04-15T06:43:14;10.70;75.70
4306;DHT22;2166;49.926;8.608;2023-04-15T06:45:42;11.30;75.30
4306;DHT22;2166;49.926;8.608;2023-04-15T06:48:11;11.90;74.50
4306;DHT22;2166;49.926;8.608;2023-04-15T06:50:39;12.60;73.60
4306;DHT22;2166;49.926;8.608;2023-04-15T06:53:08;13.20;71.70
4306;DHT22;2166;49.926;8.608;2023-04-15T06:55:36;13.50;71.20
4306;DHT22;2166;49.926;8.608;2023-04-15T06:58:07;13.70;70.40
4306;DHT22;2166;49.926;8.608;2023-04-15T07:00:36;13.90;70.00
4306;DHT22;2166;49.926;8.608;2023-04-15T07:05:58;13.80;68.90
4306;DHT22;2166;49.926;8.608;2023-04-15T07:08:27;13.90;67.70
4306;DHT22;2166;49.926;8.608;2023-04-15T07:10:56;14.10;68.20
4306;DHT22;2166;49.926;8.608;2023-04-15T07:13:25;14.40;68.40
4306;DHT22;2166;49.926;8.608;2023-04-15T07:15:53;14.80;66.40
4306;DHT22;2166;49.926;8.608;2023-04-15T07:18:28;15.10;66.00
4306;DHT22;2166;49.926;8.608;2023-04-15T07:20:57;15.60;63.80
4306;DHT22;2166;49.926;8.608;2023-04-15T07:23:25;16.20;64.10
4306;DHT22;2166;49.926;8.608;2023-04-15T07:25:55;16.90;61.80
4306;DHT22;2166;49.926;8.608;2023-04-15T07:28:28;17.80;58.70
4306;DHT22;2166;49.926;8.608;2023-04-15T07:30:59;18.70;56.50
4306;DHT22;2166;49.926;8.608;2023-04-15T07:33:30;19.70;54.40
4306;DHT22;2166;49.926;8.608;2023-04-15T07:35:59;20.60;52.60
4306;DHT22;2166;49.926;8.608;2023-04-15T07:38:32;21.40;51.00
4306;DHT22;2166;49.926;8.608;2023-04-15T07:41:00;22.30;49.30
4306;DHT22;2166;49.926;8.608;2023-04-15T07:43:32;22.70;46.30
4306;DHT22;2166;49.926;8.608;2023-04-15T07:46:00;22.70;47.30
4306;DHT22;2166;49.926;8.608;2023-04-15T07:48:29;23.20;46.10
4306;DHT22;2166;49.926;8.608;2023-04-15T07:51:01;23.40;45.50
4306;DHT22;2166;49.926;8.608;2023-04-15T07:53:30;23.50;45.30
4306;DHT22;2166;49.926;8.608;2023-04-15T07:55:59;23.40;45.70
4306;DHT22;2166;49.926;8.608;2023-04-15T07:58:31;23.90;45.40
4306;DHT22;2166;49.926;8.608;2023-04-15T08:01:00;24.10;44.30
4306;DHT22;2166;49.926;8.608;2023-04-15T08:03:28;23.60;45.20
4306;DHT22;2166;49.926;8.608;2023-04-15T08:05:57;24.10;44.70
4306;DHT22;2166;49.926;8.608;2023-04-15T08:08:26;24.20;44.00
4306;DHT22;2166;49.926;8.608;2023-04-15T08:10:54;24.80;43.40
4306;DHT22;2166;49.926;8.608;2023-04-15T08:13:23;25.30;43.30
4306;DHT22;2166;49.926;8.608;2023-04-15T08:18:39;25.20;43.00
4306;DHT22;2166;49.926;8.608;2023-04-15T08:21:08;25.10;43.00
4306;DHT22;2166;49.926;8.608;2023-04-15T08:23:38;24.70;42.90
4306;DHT22;2166;49.926;8.608;2023-04-15T08:26:10;24.20;43.90
4306;DHT22;2166;49.926;8.608;2023-04-15T08:28:41;23.40;45.20
4306;DHT22;2166;49.926;8.608;2023-04-15T08:31:10;22.50;46.20
4306;DHT22;2166;49.926;8.608;2023-04-15T08:33:41;21.40;47.50
4306;DHT22;2166;49.926;8.608;2023-04-15T08:36:10;20.90;49.70
4306;DHT22;2166;49.926;8.608;2023-04-15T08:38:41;20.30;50.30
4306;DHT22;2166;49.926;8.608;2023-04-15T08:41:11;20.20;50.70
4306;DHT22;2166;49.926;8.608;2023-04-15T08:43:42;20.40;50.10
4306;DHT22;2166;49.926;8.608;2023-04-15T08:46:13;20.20;50.40
4306;DHT22;2166;49.926;8.608;2023-04-15T08:48:44;20.50;50.30
4306;DHT22;2166;49.926;8.608;2023-04-15T08:51:13;20.60;49.50
4306;DHT22;2166;49.926;8.608;2023-04-15T08:53:44;20.40;49.20
4306;DHT22;2166;49.926;8.608;2023-04-15T08:56:15;20.30;49.20
4306;DHT22;2166;49.926;8.608;2023-04-15T08:58:45;20.30;49.80
4306;DHT22;2166;49.926;8.608;2023-04-15T09:01:13;20.30;50.00
4306;DHT22;2166;49.926;8.608;2023-04-15T09:03:50;20.50;49.10
4306;DHT22;2166;49.926;8.608;2023-04-15T09:06:21;20.60;48.40
4306;DHT22;2166;49.926;8.608;2023-04-15T09:08:58;20.60;49.00
4306;DHT22;2166;49.926;8.608;2023-04-15T09:11:28;20.80;49.10
4306;DHT22;2166;49.926;8.608;2023-04-15T09:13:58;21.10;49.30
4306;DHT22;2166;49.926;8.608;2023-04-15T09:16:29;21.70;47.70
4306;DHT22;2166;49.926;8.608;2023-04-15T09:19:01;22.00;46.40
4306;DHT22;2166;49.926;8.608;2023-04-15T09:22:15;22.30;45.80
4306;DHT22;2166;49.926;8.608;2023-04-15T09:24:43;23.10;44.90
4306;DHT22;2166;49.926;8.608;2023-04-15T09:27:15;24.00;42.70
4306;DHT22;2166;49.926;8.608;2023-04-15T09:29:58;24.70;41.30
4306;DHT22;2166;49.926;8.608;2023-04-15T09:32:26;25.10;40.80
4306;DHT22;2166;49.926;8.608;2023-04-15T09:34:57;25.20;39.60
4306;DHT22;2166;49.926;8.608;2023-04-15T09:37:37;24.70;39.50
4306;DHT22;2166;49.926;8.608;2023-04-15T09:40:06;24.60;40.10
4306;DHT22;2166;49.926;8.608;2023-04-15T09:42:52;24.50;39.60
4306;DHT22;2166;49.926;8.608;2023-04-15T09:45:22;24.30;40.70
4306;DHT22;2166;49.926;8.608;2023-04-15T09:47:55;24.10;40.60
4306;DHT22;2166;49.926;8.608;2023-04-15T09:50:28;24.10;40.60
4306;DHT22;2166;49.926;8.608;2023-04-15T09:52:57;24.30;40.40
4306;DHT22;2166;49.926;8.608;2023-04-15T09:55:25;24.60;40.30
4306;DHT22;2166;49.926;8.608;2023-04-15T09:57:55;24.60;39.00
4306;DHT22;2166;49.926;8.608;2023-04-15T10:00:24;24.20;39.50
4306;DHT22;2166;49.926;8.608;2023-04-15T10:23:19;20.30;47.30
4306;DHT22;2166;49.926;8.608;2023-04-15T10:25:48;20.20;47.40
4306;DHT22;2166;49.926;8.608;2023-04-15T10:28:17;19.60;47.30
4306;DHT22;2166;49.926;8.608;2023-04-15T10:30:49;19.10;49.10
4306;DHT22;2166;49.926;8.608;2023-04-15T10:33:18;18.50;50.70
4306;DHT22;2166;49.926;8.608;2023-04-15T10:35:51;18.40;51.20
4306;DHT22;2166;49.926;8.608;2023-04-15T10:41:19;18.10;51.10
4306;DHT22;2166;49.926;8.608;2023-04-15T11:19:02;20.70;46.90
4306;DHT22;2166;49.926;8.608;2023-04-15T11:21:32;20.90;47.10
4306;DHT22;2166;49.926;8.608;2023-04-15T11:24:01;21.20;46.10
4306;DHT22;2166;49.926;8.608;2023-04-15T11:26:30;21.20;45.60
4306;DHT22;2166;49.926;8.608;2023-04-15T11:28:59;21.30;45.90
4306;DHT22;2166;49.926;8.608;2023-04-15T11:31:28;21.60;44.10
4306;DHT22;2166;49.926;8.608;2023-04-15T11:33:57;22.50;43.40
4306;DHT22;2166;49.926;8.608;2023-04-15T11:36:29;23.70;41.30
4306;DHT22;2166;49.926;8.608;2023-04-15T11:38:59;24.80;40.40
4306;DHT22;2166;49.926;8.608;2023-04-15T11:41:30;25.80;39.80
4306;DHT22;2166;49.926;8.608;2023-04-15T11:43:58;26.10;38.70
4306;DHT22;2166;49.926;8.608;2023-04-15T11:46:27;26.90;37.60
4306;DHT22;2166;49.926;8.608;2023-04-15T11:48:56;27.70;36.50
4306;DHT22;2166;49.926;8.608;2023-04-15T11:51:25;28.40;33.70
4306;DHT22;2166;49.926;8.608;2023-04-15T11:54:00;27.90;33.60
4306;DHT22;2166;49.926;8.608;2023-04-15T11:56:29;27.40;33.80
4306;DHT22;2166;49.926;8.608;2023-04-15T11:58:58;26.30;34.40
4306;DHT22;2166;49.926;8.608;2023-04-15T12:01:30;25.50;35.60
4306;DHT22;2166;49.926;8.608;2023-04-15T12:04:04;24.30;36.30
4306;DHT22;2166;49.926;8.608;2023-04-15T12:06:39;23.10;38.20
4306;DHT22;2166;49.926;8.608;2023-04-15T12:09:09;22.80;39.20
4306;DHT22;2166;49.926;8.608;2023-04-15T12:11:39;22.70;40.00
4306;DHT22;2166;49.926;8.608;2023-04-15T12:14:09;22.40;40.90
4306;DHT22;2166;49.926;8.608;2023-04-15T12:16:39;22.10;41.30
4306;DHT22;2166;49.926;8.608;2023-04-15T12:19:16;21.40;43.00
4306;DHT22;2166;49.926;8.608;2023-04-15T12:21:46;21.00;45.90
4306;DHT22;2166;49.926;8.608;2023-04-15T12:24:18;20.80;45.30
4306;DHT22;2166;49.926;8.608;2023-04-15T12:26:48;20.70;47.40
4306;DHT22;2166;49.926;8.608;2023-04-15T12:29:17;20.60;51.40
4306;DHT22;2166;49.926;8.608;2023-04-15T12:31:47;20.30;53.10
4306;DHT22;2166;49.926;8.608;2023-04-15T12:34:18;19.40;58.10
4306;DHT22;2166;49.926;8.608;2023-04-15T12:36:52;18.30;64.00
4306;DHT22;2166;49.926;8.608;2023-04-15T12:39:23;17.70;66.80
4306;DHT22;2166;49.926;8.608;2023-04-15T12:41:55;17.00;67.40
4306;DHT22;2166;49.926;8.608;2023-04-15T12:44:25;16.50;69.60
4306;DHT22;2166;49.926;8.608;2023-04-15T12:46:56;16.10;71.50
4306;DHT22;2166;49.926;8.608;2023-04-15T12:49:27;15.80;71.80
4306;DHT22;2166;49.926;8.608;2023-04-15T12:51:56;15.50;72.30
4306;DHT22;2166;49.926;8.608;2023-04-15T12:54:32;15.40;73.10
4306;DHT22;2166;49.926;8.608;2023-04-15T12:57:03;15.20;72.40
4306;DHT22;2166;49.926;8.608;2023-04-15T12:59:33;15.10;73.40
4306;DHT22;2166;49.926;8.608;2023-04-15T13:02:03;15.00;72.90
4306;DHT22;2166;49.926;8.608;2023-04-15T13:04:31;15.00;72.80
4306;DHT22;2166;49.926;8.608;2023-04-15T13:07:05;15.20;73.00
4306;DHT22;2166;49.926;8.608;2023-04-15T13:09:35;15.30;73.00
4306;DHT22;2166;49.926;8.608;2023-04-15T13:12:04;15.50;73.50
4306;DHT22;2166;49.926;8.608;2023-04-15T13:14:33;15.60;72.60
4306;DHT22;2166;49.926;8.608;2023-04-15T13:17:01;15.50;72.50
4306;DHT22;2166;49.926;8.608;2023-04-15T13:19:34;15.50;73.40
4306;DHT22;2166;49.926;8.608;2023-04-15T13:24:52;15.10;73.40
4306;DHT22;2166;49.926;8.608;2023-04-15T13:27:21;14.70;73.90
4306;DHT22;2166;49.926;8.608;2023-04-15T13:29:49;14.40;74.00
4306;DHT22;2166;49.926;8.608;2023-04-15T13:32:18;14.30;74.20
4306;DHT22;2166;49.926;8.608;2023-04-15T13:34:49;14.30;74.60
4306;DHT22;2166;49.926;8.608;2023-04-15T13:37:18;14.40;74.00
4306;DHT22;2166;49.926;8.608;2023-04-15T13:39:49;14.20;74.50
4306;DHT22;2166;49.926;8.608;2023-04-15T13:42:19;14.20;74.60
4306;DHT22;2166;49.926;8.608;2023-04-15T13:44:48;14.30;74.90
4306;DHT22;2166;49.926;8.608;2023-04-15T13:47:17;14.30;74.50
4306;DHT22;2166;49.926;8.608;2023-04-15T13:49:49;14.30;74.40
4306;DHT22;2166;49.926;8.608;2023-04-15T13:52:22;14.30;75.00
4306;DHT22;2166;49.926;8.608;2023-04-15T13:54:50;14.40;74.70
4306;DHT22;2166;49.926;8.608;2023-04-15T13:57:43;14.50;73.90
4306;DHT22;2166;49.926;8.608;2023-04-15T14:00:12;14.60;73.90
4306;DHT22;2166;49.926;8.608;2023-04-15T14:02:41;14.50;73.70
4306;DHT22;2166;49.926;8.608;2023-04-15T14:05:10;14.50;74.40
4306;DHT22;2166;49.926;8.608;2023-04-15T14:07:38;14.70;74.40
4306;DHT22;2166;49.926;8.608;2023-04-15T14:10:07;14.60;74.10
4306;DHT22;2166;49.926;8.608;2023-04-15T14:12:35;14.30;73.60
4306;DHT22;2166;49.926;8.608;2023-04-15T14:15:06;14.30;74.00
4306;DHT22;2166;49.926;8.608;2023-04-15T14:17:35;14.20;74.10
4306;DHT22;2166;49.926;8.608;2023-04-15T14:20:07;13.90;73.80
4306;DHT22;2166;49.926;8.608;2023-04-15T14:22:35;13.60;74.20
4306;DHT22;2166;49.926;8.608;2023-04-15T14:25:04;13.20;74.00
4306;DHT22;2166;49.926;8.608;2023-04-15T14:27:33;12.90;74.90
4306;DHT22;2166;49.926;8.608;2023-04-15T14:30:02;12.80;75.50
4306;DHT22;2166;49.926;8.608;2023-04-15T14:32:35;12.80;76.00
4306;DHT22;2166;49.926;8.608;2023-04-15T14:35:03;12.70;75.80
4306;DHT22;2166;49.926;8.608;2023-04-15T14:37:33;12.40;75.50
4306;DHT22;2166;49.926;8.608;2023-04-15T14:40:02;12.30;75.60
4306;DHT22;2166;49.926;8.608;2023-04-15T14:42:30;12.10;76.40
4306;DHT22;2166;49.926;8.608;2023-04-15T14:44:58;11.90;76.20
4306;DHT22;2166;49.926;8.608;2023-04-15T14:47:26;11.70;76.90
4306;DHT22;2166;49.926;8.608;2023-04-15T14:49:56;11.60;76.90
4306;DHT22;2166;49.926;8.608;2023-04-15T14:52:25;11.60;77.40
4306;DHT22;2166;49.926;8.608;2023-04-15T14:54:53;11.50;77.40
4306;DHT22;2166;49.926;8.608;2023-04-15T14:57:22;11.50;77.40
4306;DHT22;2166;49.926;8.608;2023-04-15T14:59:50;11.50;77.20
4306;DHT22;2166;49.926;8.608;2023-04-15T15:02:23;11.50;77.60
4306;DHT22;2166;49.926;8.608;2023-04-15T15:05:07;11.50;77.60
4306;DHT22;2166;49.926;8.608;2023-04-15T15:07:36;11.30;77.50
4306;DHT22;2166;49.926;8.608;2023-04-15T15:10:05;11.30;77.80
4306;DHT22;2166;49.926;8.608;2023-04-15T15:12:33;11.20;77.70
4306;DHT22;2166;49.926;8.608;2023-04-15T15:15:04;11.10;77.80
4306;DHT22;2166;49.926;8.608;2023-04-15T15:17:52;11.10;77.90
4306;DHT22;2166;49.926;8.608;2023-04-15T15:20:22;11.10;78.10
4306;DHT22;2166;49.926;8.608;2023-04-15T15:22:50;11.10;78.00
4306;DHT22;2166;49.926;8.608;2023-04-15T15:25:19;11.10;78.20
4306;DHT22;2166;49.926;8.608;2023-04-15T15:27:48;11.10;78.50
4306;DHT22;2166;49.926;8.608;2023-04-15T15:30:17;11.10;78.20
4306;DHT22;2166;49.926;8.608;2023-04-15T15:32:45;11.10;78.30
4306;DHT22;2166;49.926;8.608;2023-04-15T15:35:16;11.20;78.40
4306;DHT22;2166;49.926;8.608;2023-04-15T15:37:47;11.10;78.30
4306;DHT22;2166;49.926;8.608;2023-04-15T15:40:17;11.10;78.40
4306;DHT22;2166;49.926;8.608;2023-04-15T15:42:45;11.00;78.30
4306;DHT22;2166;49.926;8.608;2023-04-15T15:45:16;10.80;78.20
4306;DHT22;2166;49.926;8.608;2023-04-15T15:47:45;10.60;78.30
4306;DHT22;2166;49.926;8.608;2023-04-15T15:50:14;10.60;78.40
4306;DHT22;2166;49.926;8.608;2023-04-15T15:52:43;10.50;78.80
4306;DHT22;2166;49.926;8.608;2023-04-15T15:55:13;10.40;78.50
4306;DHT22;2166;49.926;8.608;2023-04-15T15:57:41;10.40;78.70
4306;DHT22;2166;49.926;8.608;2023-04-15T16:00:10;10.30;78.90
4306;DHT22;2166;49.926;8.608;2023-04-15T16:02:39;10.40;78.90
4306;DHT22;2166;49.926;8.608;2023-04-15T16:05:12;10.40;79.10
4306;DHT22;2166;49.926;8.608;2023-04-15T16:07:40;10.40;79.10
4306;DHT22;2166;49.926;8.608;2023-04-15T16:10:09;10.40;79.10
4306;DHT22;2166;49.926;8.608;2023-04-15T16:12:41;10.40;79.10
4306;DHT22;2166;49.926;8.608;2023-04-15T16:15:10;10.40;79.20
4306;DHT22;2166;49.926;8.608;2023-04-15T16:17:39;10.40;79.10
4306;DHT22;2166;49.926;8.608;2023-04-15T16:20:08;10.40;79.20
4306;DHT22;2166;49.926;8.608;2023-04-15T16:22:37;10.40;79.20
4306;DHT22;2166;49.926;8.608;2023-04-15T16:25:06;10.50;79.30
4306;DHT22;2166;49.926;8.608;2023-04-15T16:27:36;10.50;79.20
4306;DHT22;2166;49.926;8.608;2023-04-15T16:30:26;10.40;79.30
4306;DHT22;2166;49.926;8.608;2023-04-15T16:32:55;10.40;79.30
4306;DHT22;2166;49.926;8.608;2023-04-15T16:35:24;10.40;79.30
4306;DHT22;2166;49.926;8.608;2023-04-15T16:37:55;10.40;79.30
4306;DHT22;2166;49.926;8.608;2023-04-15T16:40:24;10.40;79.30
4306;DHT22;2166;49.926;8.608;2023-04-15T16:42:53;10.40;79.30
4306;DHT22;2166;49.926;8.608;2023-04-15T16:45:21;10.20;79.40
4306;DHT22;2166;49.926;8.608;2023-04-15T16:47:53;10.10;79.30
4306;DHT22;2166;49.926;8.608;2023-04-15T16:50:23;10.10;79.40
4306;DHT22;2166;49.926;8.608;2023-04-15T16:52:54;10.00;79.70
4306;DHT22;2166;49.926;8.608;2023-04-15T16:55:22;9.90;79.40
4306;DHT22;2166;49.926;8.608;2023-04-15T16:57:52;9.90;79.40
4306;DHT22;2166;49.926;8.608;2023-04-15T17:00:30;9.90;79.50
4306;DHT22;2166;49.926;8.608;2023-04-15T17:03:00;10.00;79.60
4306;DHT22;2166;49.926;8.608;2023-04-15T17:05:29;10.00;79.50
4306;DHT22;2166;49.926;8.608;2023-04-15T17:07:57;10.00;79.50
4306;DHT22;2166;49.926;8.608;2023-04-15T17:10:26;9.90;79.50
4306;DHT22;2166;49.926;8.608;2023-04-15T17:12:56;9.90;79.50
4306;DHT22;2166;49.926;8.608;2023-04-15T17:15:25;9.80;79.50
4306;DHT22;2166;49.926;8.608;2023-04-15T17:17:54;9.80;79.50
4306;DHT22;2166;49.926;8.608;2023-04-15T17:20:24;9.80;79.60
4306;DHT22;2166;49.926;8.608;2023-04-15T17:22:54;9.80;79.50
4306;DHT22;2166;49.926;8.608;2023-04-15T17:25:22;9.70;79.70
4306;DHT22;2166;49.926;8.608;2023-04-15T17:27:50;9.70;79.50
4306;DHT22;2166;49.926;8.608;2023-04-15T17:30:19;9.70;79.70
4306;DHT22;2166;49.926;8.608;2023-04-15T17:32:47;9.70;79.70
4306;DHT22;2166;49.926;8.608;2023-04-15T17:35:17;9.70;79.70